createdAt,value
2019-03-18T00:01:09.223Z,7.20
2019-03-18T00:03:39.697Z,7.20
2019-03-18T00:06:09.471Z,7.20
2019-03-18T00:08:39.291Z,7.20
2019-03-18T00:11:09.424Z,7.20
2019-03-18T00:13:39.207Z,7.20
2019-03-18T00:16:09.082Z,7.20
2019-03-18T00:18:39.810Z,7.20
2019-03-18T00:21:09.586Z,7.20
2019-03-18T00:23:39.474Z,7.20
2019-03-18T00:26:10.750Z,7.20
2019-03-18T00:28:40.523Z,7.10
2019-03-18T00:31:10.571Z,7.10
2019-03-18T00:33:40.423Z,7.10
2019-03-18T00:36:10.429Z,7.10
2019-03-18T00:38:40.664Z,7.10
2019-03-18T00:41:10.474Z,7.10
2019-03-18T00:43:40.471Z,7.10
2019-03-18T00:46:10.726Z,7.10
2019-03-18T00:48:40.736Z,7.10
2019-03-18T00:51:10.814Z,7.10
2019-03-18T00:53:40.768Z,7.10
2019-03-18T00:56:10.692Z,7.10
2019-03-18T00:58:40.868Z,7.00
2019-03-18T01:01:11.045Z,7.00
2019-03-18T01:03:40.819Z,7.00
2019-03-18T01:06:10.894Z,7.00
2019-03-18T01:08:40.883Z,7.00
2019-03-18T01:11:10.759Z,7.00
2019-03-18T01:13:40.775Z,6.90
2019-03-18T01:16:11.063Z,6.90
2019-03-18T01:18:41.739Z,6.90
2019-03-18T01:21:11.523Z,6.80
2019-03-18T01:23:41.334Z,6.80
2019-03-18T01:26:11.113Z,6.70
2019-03-18T01:28:40.993Z,6.60
2019-03-18T01:31:11.206Z,6.50
2019-03-18T01:33:41.013Z,6.40
2019-03-18T01:36:10.928Z,6.30
2019-03-18T01:38:41.389Z,6.20
2019-03-18T01:41:11.949Z,6.10
2019-03-18T01:43:41.720Z,6.10
2019-03-18T01:46:11.552Z,6.10
2019-03-18T01:48:41.647Z,6.00
2019-03-18T01:51:11.547Z,6.00
2019-03-18T01:53:41.367Z,6.00
2019-03-18T01:56:11.131Z,6.00
2019-03-18T01:58:41.123Z,5.90
2019-03-18T02:01:11.247Z,5.90
2019-03-18T02:03:41.163Z,5.90
2019-03-18T02:06:11.348Z,5.90
2019-03-18T02:08:41.199Z,5.80
2019-03-18T02:11:11.123Z,5.80
2019-03-18T02:13:41.403Z,5.80
2019-03-18T02:16:11.327Z,5.80
2019-03-18T02:18:41.545Z,5.80
2019-03-18T02:21:11.331Z,5.80
2019-03-18T02:23:41.415Z,5.80
2019-03-18T02:26:11.312Z,5.80
2019-03-18T02:28:41.516Z,5.70
2019-03-18T02:31:11.452Z,5.80
2019-03-18T02:33:41.367Z,5.80
2019-03-18T02:36:11.580Z,5.80
2019-03-18T02:38:41.388Z,5.80
2019-03-18T02:41:11.403Z,5.80
2019-03-18T02:43:41.615Z,5.80
2019-03-18T02:46:11.572Z,5.80
2019-03-18T02:48:41.344Z,5.70
2019-03-18T02:51:11.439Z,5.70
2019-03-18T02:53:41.324Z,5.70
2019-03-18T02:56:11.518Z,5.70
2019-03-18T02:58:41.419Z,5.70
2019-03-18T03:01:11.368Z,5.70
2019-03-18T03:03:41.396Z,5.70
2019-03-18T03:06:11.750Z,5.80
2019-03-18T03:08:41.555Z,5.80
2019-03-18T03:11:11.409Z,5.80
2019-03-18T03:13:41.454Z,5.80
2019-03-18T03:16:25.696Z,5.70
2019-03-18T03:18:43.545Z,5.70
2019-03-18T03:21:13.324Z,5.70
2019-03-18T03:23:43.443Z,5.70
2019-03-18T03:26:13.267Z,5.70
2019-03-18T03:28:43.049Z,5.70
2019-03-18T03:31:13.499Z,5.60
2019-03-18T03:33:43.489Z,5.70
2019-03-18T03:36:13.261Z,5.70
2019-03-18T03:38:43.426Z,5.70
2019-03-18T03:41:17.279Z,5.70
2019-03-18T03:43:44.630Z,5.70
2019-03-18T03:46:14.437Z,5.70
2019-03-18T03:48:44.206Z,5.70
2019-03-18T03:51:14.315Z,5.70
2019-03-18T03:53:44.127Z,5.70
2019-03-18T03:56:14.107Z,5.70
2019-03-18T03:58:44.374Z,5.70
2019-03-18T04:01:14.183Z,5.60
2019-03-18T04:03:43.961Z,5.60
2019-03-18T04:06:14.383Z,5.60
2019-03-18T04:08:44.492Z,5.60
2019-03-18T04:11:14.262Z,5.70
2019-03-18T04:13:44.424Z,5.70
2019-03-18T04:16:14.233Z,5.80
2019-03-18T04:18:44.008Z,5.80
2019-03-18T04:21:13.776Z,5.80
2019-03-18T04:23:44.325Z,5.80
2019-03-18T04:26:14.095Z,5.70
2019-03-18T04:28:44.017Z,5.70
2019-03-18T04:31:14.375Z,5.80
2019-03-18T04:33:44.151Z,5.80
2019-03-18T04:36:14.515Z,5.90
2019-03-18T04:38:44.327Z,5.90
2019-03-18T04:41:14.263Z,6.00
2019-03-18T04:43:44.074Z,6.10
2019-03-18T04:46:13.849Z,6.10
2019-03-18T04:48:43.618Z,6.20
2019-03-18T04:51:13.397Z,6.20
2019-03-18T04:53:43.204Z,6.20
2019-03-18T04:56:12.979Z,6.10
2019-03-18T04:58:43.106Z,6.00
2019-03-18T05:01:13.051Z,6.00
2019-03-18T05:03:43.073Z,5.90
2019-03-18T05:06:13.023Z,5.90
2019-03-18T05:08:43.047Z,5.90
2019-03-18T05:11:13.087Z,6.00
2019-03-18T05:13:43.394Z,6.00
2019-03-18T05:16:13.223Z,6.00
2019-03-18T05:18:43.138Z,6.10
2019-03-18T05:21:13.064Z,6.10
2019-03-18T05:23:43.311Z,6.20
2019-03-18T05:26:13.089Z,6.20
2019-03-18T05:28:43.102Z,6.20
2019-03-18T05:31:13.298Z,6.30
2019-03-18T05:33:43.091Z,6.30
2019-03-18T05:36:13.030Z,6.30
2019-03-18T05:38:43.115Z,6.30
2019-03-18T05:41:13.296Z,6.20
2019-03-18T05:43:43.211Z,6.30
2019-03-18T05:46:13.236Z,6.20
2019-03-18T05:48:43.455Z,6.20
2019-03-18T05:51:13.319Z,6.20
2019-03-18T05:53:43.523Z,6.30
2019-03-18T05:56:13.295Z,6.20
2019-03-18T05:58:43.327Z,6.20
2019-03-18T06:01:32.539Z,6.20
2019-03-18T06:04:02.364Z,6.10
2019-03-18T06:06:32.146Z,6.10
2019-03-18T06:09:01.961Z,6.10
2019-03-18T06:11:32.578Z,6.00
2019-03-18T06:14:02.353Z,6.10
2019-03-18T06:16:32.392Z,6.10
2019-03-18T06:19:02.623Z,6.00
2019-03-18T06:21:32.523Z,6.00
2019-03-18T06:24:02.353Z,6.00
2019-03-18T06:26:32.680Z,6.00
2019-03-18T06:29:02.463Z,5.90
2019-03-18T06:31:32.272Z,6.00
2019-03-18T06:34:02.479Z,6.00
2019-03-18T06:36:32.294Z,6.00
2019-03-18T06:39:02.109Z,6.00
2019-03-18T06:41:32.455Z,6.00
2019-03-18T06:44:02.223Z,6.10
2019-03-18T06:46:32.030Z,6.20
2019-03-18T06:49:01.813Z,6.20
2019-03-18T06:51:31.580Z,6.20
2019-03-18T06:54:01.883Z,6.30
2019-03-18T06:56:31.774Z,6.30
2019-03-18T06:59:01.549Z,6.40
2019-03-18T07:01:31.356Z,6.40
2019-03-18T07:04:01.133Z,6.50
2019-03-18T07:06:31.206Z,6.60
2019-03-18T07:09:01.055Z,6.70
2019-03-18T07:11:30.830Z,6.70
2019-03-18T07:14:01.233Z,6.80
2019-03-18T07:16:31.115Z,7.00
2019-03-18T07:19:00.891Z,7.20
2019-03-18T07:21:31.351Z,7.40
2019-03-18T07:24:01.162Z,7.50
2019-03-18T07:26:31.855Z,7.50
2019-03-18T07:29:01.651Z,7.60
2019-03-18T07:31:31.455Z,7.60
2019-03-18T07:34:01.480Z,7.70
2019-03-18T07:36:31.260Z,7.70
2019-03-18T07:39:01.075Z,7.70
2019-03-18T07:41:31.316Z,7.60
2019-03-18T07:44:01.091Z,7.60
2019-03-18T07:46:30.899Z,7.60
2019-03-18T07:49:01.398Z,7.60
2019-03-18T07:51:31.172Z,7.80
2019-03-18T07:54:00.998Z,8.00
2019-03-18T07:56:31.415Z,8.20
2019-03-18T07:59:01.191Z,8.40
2019-03-18T08:01:30.995Z,8.80
2019-03-18T08:04:00.769Z,9.60
2019-03-18T08:06:30.754Z,10.40
2019-03-18T08:09:00.884Z,11.10
2019-03-18T08:11:30.664Z,11.60
2019-03-18T08:14:00.442Z,11.80
2019-03-18T08:16:30.899Z,12.00
2019-03-18T08:19:00.683Z,12.10
2019-03-18T08:21:30.480Z,12.40
2019-03-18T08:24:00.995Z,12.80
2019-03-18T08:26:48.942Z,13.40
2019-03-18T08:29:19.195Z,13.40
2019-03-18T08:31:49.021Z,13.30
2019-03-18T08:34:19.147Z,13.50
2019-03-18T08:36:49.120Z,13.30
2019-03-18T08:39:19.116Z,13.20
2019-03-18T08:41:49.303Z,13.50
2019-03-18T08:44:19.116Z,12.80
2019-03-18T08:46:49.543Z,12.30
2019-03-18T08:49:19.327Z,11.60
2019-03-18T08:51:49.723Z,11.20
2019-03-18T08:54:19.506Z,10.70
2019-03-18T08:56:49.439Z,10.10
2019-03-18T08:59:19.441Z,9.80
2019-03-18T09:01:49.654Z,9.50
2019-03-18T09:04:19.559Z,9.40
2019-03-18T09:06:49.820Z,9.20
2019-03-18T09:09:19.735Z,9.00
2019-03-18T09:11:49.512Z,9.00
2019-03-18T09:14:19.571Z,9.00
2019-03-18T09:16:49.759Z,8.90
2019-03-18T09:19:19.663Z,8.80
2019-03-18T09:21:49.788Z,8.80
2019-03-18T09:24:19.565Z,8.80
2019-03-18T09:27:01.493Z,8.90
2019-03-18T09:29:21.369Z,9.00
2019-03-18T09:31:51.140Z,9.00
2019-03-18T09:34:20.916Z,9.00
2019-03-18T09:36:59.468Z,9.20
2019-03-18T09:39:29.741Z,9.40
2019-03-18T09:42:08.906Z,9.60
2019-03-18T09:44:38.674Z,9.80
2019-03-18T09:47:08.449Z,9.90
2019-03-18T09:49:38.255Z,9.90
2019-03-18T09:52:08.031Z,10.10
2019-03-18T09:54:37.814Z,10.80
2019-03-18T09:57:07.640Z,11.10
2019-03-18T09:59:37.420Z,11.30
2019-03-18T10:02:07.192Z,11.20
2019-03-18T10:04:37.344Z,10.90
2019-03-18T10:07:07.124Z,10.70
2019-03-18T10:09:36.913Z,10.50
2019-03-18T10:12:07.505Z,10.40
2019-03-18T10:14:37.287Z,10.40
2019-03-18T10:17:09.985Z,10.50
2019-03-18T10:19:38.508Z,10.60
2019-03-18T10:22:08.290Z,10.70
2019-03-18T10:24:38.143Z,10.50
2019-03-18T10:27:07.968Z,10.30
2019-03-18T10:29:37.732Z,10.10
2019-03-18T10:32:08.122Z,10.00
2019-03-18T10:34:37.934Z,9.90
2019-03-18T10:37:07.749Z,9.80
2019-03-18T10:39:38.303Z,9.80
2019-03-18T10:42:08.115Z,9.80
2019-03-18T10:44:37.887Z,9.80
2019-03-18T10:47:08.275Z,10.10
2019-03-18T10:49:45.996Z,11.40
2019-03-18T10:52:09.828Z,11.40
2019-03-18T10:54:39.603Z,11.10
2019-03-18T10:57:09.425Z,10.90
2019-03-18T10:59:39.763Z,10.80
2019-03-18T11:02:09.538Z,10.60
2019-03-18T11:04:39.422Z,10.30
2019-03-18T11:07:09.767Z,10.20
2019-03-18T11:09:39.547Z,10.00
2019-03-18T11:12:09.368Z,10.00
2019-03-18T11:14:39.149Z,10.10
2019-03-18T11:17:08.921Z,10.10
2019-03-18T11:19:38.734Z,10.30
2019-03-18T11:22:08.516Z,10.70
2019-03-18T11:24:38.296Z,11.00
2019-03-18T11:27:08.127Z,10.80
2019-03-18T11:29:38.487Z,10.70
2019-03-18T11:32:08.286Z,10.60
2019-03-18T11:34:38.155Z,10.40
2019-03-18T11:37:07.940Z,10.10
2019-03-18T11:39:56.958Z,10.00
2019-03-18T11:42:45.357Z,10.10
2019-03-18T11:45:16.669Z,11.20
2019-03-18T11:47:46.814Z,13.90
2019-03-18T11:50:18.505Z,16.20
2019-03-18T11:52:48.650Z,17.40
2019-03-18T11:55:20.124Z,17.60
2019-03-18T11:57:49.907Z,17.90
2019-03-18T12:00:37.958Z,18.20
2019-03-18T12:03:25.841Z,17.60
2019-03-18T12:06:14.213Z,16.70
2019-03-18T12:09:02.374Z,15.60
2019-03-18T12:11:50.309Z,14.30
2019-03-18T12:14:38.792Z,13.40
2019-03-18T12:17:28.576Z,12.70
2019-03-18T12:20:24.335Z,12.70
2019-03-18T12:23:06.767Z,13.10
2019-03-18T12:25:55.384Z,13.80
2019-03-18T12:28:43.894Z,14.20
2019-03-18T12:31:31.873Z,15.00
2019-03-18T12:34:19.944Z,16.50
2019-03-18T12:37:07.875Z,17.50
2019-03-18T12:39:55.738Z,17.00
2019-03-18T12:42:44.182Z,15.80
2019-03-18T12:45:32.084Z,14.70
2019-03-18T12:48:20.083Z,14.10
2019-03-18T12:50:56.211Z,13.50
2019-03-18T12:53:21.775Z,13.10
2019-03-18T12:55:52.966Z,12.80
2019-03-18T12:58:23.183Z,12.70
2019-03-18T13:00:52.992Z,12.60
2019-03-18T13:03:22.820Z,12.40
2019-03-18T13:05:52.999Z,11.90
2019-03-18T13:08:22.792Z,11.80
2019-03-18T13:10:52.651Z,11.60
2019-03-18T13:13:22.747Z,11.40
2019-03-18T13:15:52.682Z,11.30
2019-03-18T13:18:22.876Z,11.00
2019-03-18T13:20:52.949Z,10.90
2019-03-18T13:23:22.723Z,10.80
2019-03-18T13:25:52.934Z,10.60
2019-03-18T13:28:22.784Z,10.50
2019-03-18T13:30:52.723Z,10.50
2019-03-18T13:33:22.883Z,10.50
2019-03-18T13:35:53.008Z,10.60
2019-03-18T13:38:22.794Z,10.70
2019-03-18T13:40:52.938Z,10.70
2019-03-18T13:43:42.190Z,10.70
2019-03-18T13:46:11.974Z,10.60
2019-03-18T13:48:41.773Z,10.40
2019-03-18T13:51:20.710Z,10.40
2019-03-18T13:53:42.967Z,10.20
2019-03-18T13:56:13.029Z,10.20
2019-03-18T13:58:42.963Z,10.20
2019-03-18T14:01:12.974Z,10.20
2019-03-18T14:03:42.770Z,10.20
2019-03-18T14:06:12.847Z,10.20
2019-03-18T14:08:42.648Z,10.30
2019-03-18T14:11:12.504Z,10.60
2019-03-18T14:13:42.335Z,10.60
2019-03-18T14:16:12.759Z,10.70
2019-03-18T14:18:42.539Z,10.60
2019-03-18T14:21:12.423Z,10.60
2019-03-18T14:23:42.815Z,10.60
2019-03-18T14:26:12.607Z,10.50
2019-03-18T14:28:42.415Z,10.50
2019-03-18T14:31:12.584Z,10.40
2019-03-18T14:33:42.362Z,10.50
2019-03-18T14:36:12.250Z,10.50
2019-03-18T14:38:42.098Z,10.60
2019-03-18T14:41:11.895Z,10.60
2019-03-18T14:43:41.732Z,10.50
2019-03-18T14:46:11.636Z,10.50
2019-03-18T14:48:41.463Z,10.40
2019-03-18T14:51:11.287Z,10.30
2019-03-18T14:53:41.105Z,10.30
2019-03-18T14:56:11.402Z,10.40
2019-03-18T14:58:41.245Z,10.40
2019-03-18T15:01:11.023Z,10.40
2019-03-18T15:03:41.404Z,10.30
2019-03-18T15:06:11.261Z,10.20
2019-03-18T15:08:41.058Z,10.30
2019-03-18T15:11:11.395Z,10.40
2019-03-18T15:13:41.235Z,10.60
2019-03-18T15:16:11.314Z,10.70
2019-03-18T15:18:41.502Z,10.70
2019-03-18T15:21:11.346Z,10.70
2019-03-18T15:23:41.143Z,10.50
2019-03-18T15:26:10.924Z,10.50
2019-03-18T15:28:41.291Z,10.50
2019-03-18T15:31:11.085Z,10.40
2019-03-18T15:33:40.867Z,10.70
2019-03-18T15:36:12.315Z,10.90
2019-03-18T15:38:42.066Z,11.00
2019-03-18T15:41:11.843Z,10.80
2019-03-18T15:43:42.083Z,10.70
2019-03-18T15:46:11.936Z,10.60
2019-03-18T15:48:41.727Z,10.50
2019-03-18T15:51:12.145Z,10.40
2019-03-18T15:53:41.919Z,10.30
2019-03-18T15:56:11.696Z,10.20
2019-03-18T15:58:41.888Z,10.20
2019-03-18T16:01:11.663Z,10.30
2019-03-18T16:03:41.450Z,10.40
2019-03-18T16:06:12.146Z,10.40
2019-03-18T16:08:41.929Z,10.20
2019-03-18T16:11:11.722Z,10.20
2019-03-18T16:13:42.195Z,10.10
2019-03-18T16:16:12.088Z,10.10
2019-03-18T16:18:41.867Z,10.10
2019-03-18T16:21:12.478Z,10.10
2019-03-18T16:23:42.263Z,10.10
2019-03-18T16:26:12.047Z,10.10
2019-03-18T16:28:42.509Z,10.20
2019-03-18T16:31:12.294Z,10.20
2019-03-18T16:33:42.064Z,10.30
2019-03-18T16:36:12.255Z,10.30
2019-03-18T16:38:42.047Z,10.30
2019-03-18T16:41:11.824Z,10.30
2019-03-18T16:43:42.210Z,10.20
2019-03-18T16:46:11.991Z,10.20
2019-03-18T16:48:41.780Z,10.20
2019-03-18T16:51:11.596Z,10.20
2019-03-18T16:53:41.371Z,10.10
2019-03-18T16:56:11.447Z,10.00
2019-03-18T16:58:41.267Z,10.00
2019-03-18T17:01:11.209Z,9.90
2019-03-18T17:03:41.137Z,9.90
2019-03-18T17:06:10.950Z,9.80
2019-03-18T17:08:40.720Z,9.80
2019-03-18T17:11:10.491Z,9.80
2019-03-18T17:13:40.371Z,9.80
2019-03-18T17:16:10.223Z,9.70
2019-03-18T17:18:40.131Z,9.80
2019-03-18T17:21:10.002Z,9.70
2019-03-18T17:23:39.795Z,9.70
2019-03-18T17:26:09.974Z,9.70
2019-03-18T17:28:39.808Z,9.60
2019-03-18T17:31:09.666Z,9.60
2019-03-18T17:33:40.200Z,9.60
2019-03-18T17:36:10.025Z,9.50
2019-03-18T17:38:39.895Z,9.50
2019-03-18T17:41:09.740Z,9.50
2019-03-18T17:43:39.598Z,9.50
2019-03-18T17:46:09.612Z,9.40
2019-03-18T17:48:40.475Z,9.40
2019-03-18T17:51:10.286Z,9.30
2019-03-18T17:53:40.127Z,9.30
2019-03-18T17:56:10.301Z,9.20
2019-03-18T17:58:40.175Z,9.20
2019-03-18T18:01:10.089Z,9.20
2019-03-18T18:03:40.480Z,9.30
2019-03-18T18:06:10.298Z,9.20
2019-03-18T18:08:40.067Z,9.30
2019-03-18T18:11:10.416Z,9.20
2019-03-18T18:13:40.222Z,9.20
2019-03-18T18:16:10.035Z,9.20
2019-03-18T18:18:40.008Z,9.20
2019-03-18T18:21:10.204Z,9.20
2019-03-18T18:23:39.986Z,9.20
2019-03-18T18:26:09.766Z,9.20
2019-03-18T18:28:40.162Z,9.10
2019-03-18T18:31:09.954Z,9.00
2019-03-18T18:33:39.730Z,9.00
2019-03-18T18:36:10.236Z,9.00
2019-03-18T18:38:40.091Z,8.90
2019-03-18T18:41:09.878Z,8.90
2019-03-18T18:43:40.464Z,8.90
2019-03-18T18:46:10.281Z,8.90
2019-03-18T18:48:40.060Z,8.90
2019-03-18T18:51:10.427Z,8.90
2019-03-18T18:53:40.310Z,8.90
2019-03-18T18:56:10.100Z,8.90
2019-03-18T18:58:39.922Z,8.90
2019-03-18T19:01:09.697Z,8.90
2019-03-18T19:03:39.480Z,8.90
2019-03-18T19:06:09.307Z,8.90
2019-03-18T19:08:39.092Z,9.00
2019-03-18T19:11:09.057Z,8.90
2019-03-18T19:13:39.372Z,8.90
2019-03-18T19:16:09.267Z,8.90
2019-03-18T19:18:39.091Z,9.00
2019-03-18T19:21:09.310Z,9.00
2019-03-18T19:23:39.244Z,8.90
2019-03-18T19:26:09.431Z,8.90
2019-03-18T19:28:39.328Z,8.90
2019-03-18T19:31:09.207Z,8.90
2019-03-18T19:33:39.238Z,9.00
2019-03-18T19:36:09.355Z,9.00
2019-03-18T19:38:39.318Z,8.90
2019-03-18T19:41:09.295Z,8.90
2019-03-18T19:43:39.319Z,8.90
2019-03-18T19:46:09.474Z,9.00
2019-03-18T19:48:39.375Z,8.90
2019-03-18T19:51:09.251Z,8.90
2019-03-18T19:53:48.709Z,8.90
2019-03-18T19:56:10.707Z,8.90
2019-03-18T19:58:41.192Z,8.90
2019-03-18T20:01:10.995Z,9.00
2019-03-18T20:03:40.774Z,8.90
2019-03-18T20:06:11.375Z,8.90
2019-03-18T20:08:41.159Z,8.90
2019-03-18T20:11:10.949Z,8.90
2019-03-18T20:13:41.497Z,8.90
2019-03-18T20:16:12.246Z,8.80
2019-03-18T20:18:42.030Z,8.80
2019-03-18T20:21:11.911Z,8.80
2019-03-18T20:23:42.096Z,8.80
2019-03-18T20:26:11.892Z,8.70
2019-03-18T20:28:41.747Z,8.70
2019-03-18T20:31:11.543Z,8.70
2019-03-18T20:33:41.322Z,8.70
2019-03-18T20:36:11.873Z,8.70
2019-03-18T20:38:41.647Z,8.70
2019-03-18T20:41:11.473Z,8.60
2019-03-18T20:43:41.915Z,8.60
2019-03-18T20:46:11.708Z,8.60
2019-03-18T20:48:41.506Z,8.60
2019-03-18T20:51:12.005Z,8.60
2019-03-18T20:53:42.613Z,8.60
2019-03-18T20:56:12.649Z,8.70
2019-03-18T20:58:42.530Z,8.70
2019-03-18T21:01:12.386Z,8.70
2019-03-18T21:03:42.533Z,8.70
2019-03-18T21:06:12.351Z,8.80
2019-03-18T21:08:42.160Z,8.80
2019-03-18T21:11:12.544Z,8.80
2019-03-18T21:13:42.433Z,8.80
2019-03-18T21:16:12.465Z,8.80
2019-03-18T21:18:44.098Z,8.80
2019-03-18T21:21:13.871Z,8.80
2019-03-18T21:23:44.277Z,8.70
2019-03-18T21:26:14.251Z,8.70
2019-03-18T21:28:44.073Z,8.70
2019-03-18T21:31:14.241Z,8.70
2019-03-18T21:33:44.015Z,8.70
2019-03-18T21:36:28.187Z,8.70
2019-03-18T21:38:45.825Z,8.70
2019-03-18T21:41:15.553Z,8.70
2019-03-18T21:43:45.418Z,8.70
2019-03-18T21:46:15.202Z,8.70
2019-03-18T21:48:44.984Z,8.60
2019-03-18T21:51:14.995Z,8.60
2019-03-18T21:53:44.894Z,8.70
2019-03-18T21:56:14.911Z,8.70
2019-03-18T21:58:44.959Z,8.60
2019-03-18T22:01:15.375Z,8.60
2019-03-18T22:03:45.159Z,8.60
2019-03-18T22:06:15.103Z,8.60
2019-03-18T22:08:45.021Z,8.60
2019-03-18T22:11:14.799Z,8.60
2019-03-18T22:13:44.623Z,8.60
2019-03-18T22:16:14.993Z,8.60
2019-03-18T22:18:44.782Z,8.60
2019-03-18T22:21:14.595Z,8.60
2019-03-18T22:23:45.119Z,8.60
2019-03-18T22:26:14.902Z,8.60
2019-03-18T22:28:45.018Z,8.60
2019-03-18T22:31:15.776Z,8.50
2019-03-18T22:33:45.909Z,8.50
2019-03-18T22:36:16.045Z,8.50
2019-03-18T22:38:46.152Z,8.50
2019-03-18T22:41:16.112Z,8.50
2019-03-18T22:43:46.321Z,8.50
2019-03-18T22:46:16.103Z,8.50
2019-03-18T22:48:46.033Z,8.50
2019-03-18T22:51:16.057Z,8.50
2019-03-18T22:53:46.244Z,8.50
2019-03-18T22:56:16.030Z,8.50
2019-03-18T22:58:46.317Z,8.40
2019-03-18T23:01:17.239Z,8.40
2019-03-18T23:03:47.057Z,8.30
2019-03-18T23:06:16.871Z,8.20
2019-03-18T23:08:48.911Z,8.20
2019-03-18T23:11:18.834Z,8.10
2019-03-18T23:13:48.647Z,8.00
2019-03-18T23:16:18.455Z,7.90
2019-03-18T23:18:48.951Z,7.90
2019-03-18T23:21:18.785Z,7.80
2019-03-18T23:23:48.575Z,7.80
2019-03-18T23:26:18.798Z,7.70
2019-03-18T23:28:48.903Z,7.70
2019-03-18T23:31:18.684Z,7.70
2019-03-18T23:33:48.951Z,7.70
2019-03-18T23:36:18.918Z,7.70
2019-03-18T23:38:48.695Z,7.80
2019-03-18T23:41:18.478Z,7.80
2019-03-18T23:43:48.304Z,7.80
2019-03-18T23:46:18.083Z,7.90
2019-03-18T23:48:47.868Z,7.90
2019-03-18T23:51:17.769Z,8.00
2019-03-18T23:53:47.561Z,8.10
2019-03-18T23:56:17.529Z,8.10
2019-03-18T23:58:47.570Z,8.10
